createdAt,value
2022-09-24T00:01:44.508Z,3.43
2022-09-24T00:04:16.079Z,4.07
2022-09-24T00:06:45.844Z,3.87
2022-09-24T00:09:14.992Z,3.80
2022-09-24T00:11:44.080Z,3.80
2022-09-24T00:14:11.232Z,3.80
2022-09-24T00:16:44.063Z,3.33
2022-09-24T00:19:14.215Z,3.20
2022-09-24T00:21:41.691Z,3.57
2022-09-24T00:24:32.624Z,3.27
2022-09-24T00:26:59.694Z,3.50
2022-09-24T00:29:28.338Z,3.80
2022-09-24T00:31:55.406Z,3.53
2022-09-24T00:34:22.124Z,3.40
2022-09-24T00:36:48.807Z,3.60
2022-09-24T00:39:18.942Z,3.70
2022-09-24T00:41:51.242Z,3.50
2022-09-24T00:44:37.543Z,4.40
2022-09-24T00:47:05.031Z,3.70
2022-09-24T00:49:32.068Z,3.87
2022-09-24T00:51:58.694Z,4.10
2022-09-24T00:54:28.769Z,4.00
2022-09-24T00:56:57.955Z,4.00
2022-09-24T00:59:29.045Z,4.20
2022-09-24T01:01:59.539Z,4.30
2022-09-24T01:04:27.915Z,4.10
2022-09-24T01:06:55.766Z,3.93
2022-09-24T01:09:26.047Z,4.00
2022-09-24T01:12:23.318Z,4.20
2022-09-24T01:15:10.099Z,4.07
2022-09-24T01:17:50.624Z,4.20
2022-09-24T01:20:45.144Z,4.30
2022-09-24T01:23:15.391Z,4.00
2022-09-24T01:26:20.619Z,4.13
2022-09-24T01:29:06.975Z,3.80
2022-09-24T01:31:41.035Z,4.27
2022-09-24T01:34:09.233Z,3.70
2022-09-24T01:36:37.074Z,4.30
2022-09-24T01:39:06.800Z,3.97
2022-09-24T01:41:34.312Z,3.63
2022-09-24T01:44:03.208Z,3.70
2022-09-24T01:46:32.078Z,3.60
2022-09-24T01:48:59.292Z,3.53
2022-09-24T01:51:39.212Z,3.27
2022-09-24T01:54:33.100Z,3.17
2022-09-24T01:57:09.948Z,3.20
2022-09-24T01:59:40.619Z,3.90
2022-09-24T02:02:14.662Z,3.70
2022-09-24T02:04:47.632Z,3.70
2022-09-24T02:07:22.879Z,3.47
2022-09-24T02:09:49.823Z,3.40
2022-09-24T02:12:35.698Z,3.50
2022-09-24T02:15:11.611Z,3.60
2022-09-24T02:17:40.857Z,3.50
2022-09-24T02:20:16.455Z,3.57
2022-09-24T02:22:45.778Z,2.80
2022-09-24T02:25:18.426Z,3.13
2022-09-24T02:27:45.081Z,3.07
2022-09-24T02:30:12.137Z,3.33
2022-09-24T02:32:41.105Z,3.17
2022-09-24T02:35:10.255Z,3.27
2022-09-24T02:37:42.724Z,3.20
2022-09-24T02:40:13.543Z,3.40
2022-09-24T02:42:42.321Z,3.13
2022-09-24T02:45:10.642Z,3.30
2022-09-24T02:47:37.658Z,3.30
2022-09-24T02:50:04.762Z,3.50
2022-09-24T02:52:31.464Z,3.50
2022-09-24T02:54:58.150Z,3.50
2022-09-24T02:57:24.751Z,3.60
2022-09-24T02:59:51.343Z,3.57
2022-09-24T03:02:18.027Z,3.47
2022-09-24T03:04:44.797Z,3.73
2022-09-24T03:07:14.643Z,3.70
2022-09-24T03:09:41.520Z,3.97
2022-09-24T03:12:08.284Z,6.23
2022-09-24T03:14:35.018Z,4.07
2022-09-24T03:17:01.667Z,3.40
2022-09-24T03:19:28.318Z,3.67
2022-09-24T03:21:54.906Z,3.53
2022-09-24T03:24:21.491Z,3.57
2022-09-24T03:26:48.127Z,3.33
2022-09-24T03:29:14.791Z,3.40
2022-09-24T03:31:41.461Z,3.20
2022-09-24T03:34:08.959Z,3.60
2022-09-24T03:36:35.630Z,3.07
2022-09-24T03:39:02.270Z,3.77
2022-09-24T03:41:28.977Z,3.53
2022-09-24T03:43:56.604Z,3.43
2022-09-24T03:46:30.199Z,3.27
2022-09-24T03:48:59.422Z,3.13
2022-09-24T03:51:26.142Z,3.20
2022-09-24T03:53:52.761Z,3.20
2022-09-24T03:56:19.371Z,3.53
2022-09-24T03:58:48.233Z,3.23
2022-09-24T04:01:20.692Z,2.87
2022-09-24T04:03:48.579Z,3.40
2022-09-24T04:06:15.303Z,3.23
2022-09-24T04:08:41.956Z,3.23
2022-09-24T04:11:08.629Z,3.50
2022-09-24T04:13:35.379Z,3.23
2022-09-24T04:16:05.398Z,3.00
2022-09-24T04:18:35.683Z,3.13
2022-09-24T04:21:05.251Z,3.43
2022-09-24T04:23:31.852Z,4.00
2022-09-24T04:26:02.326Z,3.67
2022-09-24T04:28:30.180Z,3.43
2022-09-24T04:30:57.342Z,3.30
2022-09-24T04:33:24.067Z,3.47
2022-09-24T04:35:50.749Z,3.20
2022-09-24T04:38:18.755Z,3.10
2022-09-24T04:40:47.426Z,3.30
2022-09-24T04:43:14.166Z,3.60
2022-09-24T04:45:46.471Z,4.00
2022-09-24T04:48:14.024Z,2.77
2022-09-24T04:50:45.563Z,3.03
2022-09-24T04:53:12.949Z,3.00
2022-09-24T04:55:39.736Z,2.63
2022-09-24T04:58:06.555Z,3.03
2022-09-24T05:00:33.556Z,3.63
2022-09-24T05:03:05.114Z,3.30
2022-09-24T05:05:33.312Z,3.00
2022-09-24T05:08:01.629Z,3.40
2022-09-24T05:10:29.889Z,3.40
2022-09-24T05:12:56.488Z,3.10
2022-09-24T05:15:23.448Z,2.83
2022-09-24T05:17:50.062Z,3.30
2022-09-24T05:20:19.791Z,3.43
2022-09-24T05:22:49.628Z,3.00
2022-09-24T05:25:20.884Z,3.50
2022-09-24T05:27:52.298Z,3.13
2022-09-24T05:30:22.382Z,3.30
2022-09-24T05:32:52.278Z,3.30
2022-09-24T05:35:24.002Z,3.43
2022-09-24T05:37:56.290Z,3.37
2022-09-24T05:40:44.376Z,3.10
2022-09-24T05:43:13.631Z,3.03
2022-09-24T05:45:43.530Z,2.90
2022-09-24T05:48:12.087Z,3.40
2022-09-24T05:50:38.798Z,3.20
2022-09-24T05:53:06.270Z,3.00
2022-09-24T05:55:33.659Z,3.00
2022-09-24T05:58:07.830Z,2.83
2022-09-24T06:00:37.726Z,2.97
2022-09-24T06:03:08.956Z,2.53
2022-09-24T06:05:35.888Z,3.03
2022-09-24T06:08:06.280Z,2.87
2022-09-24T06:10:36.989Z,3.20
2022-09-24T06:13:04.150Z,3.17
2022-09-24T06:15:31.064Z,2.90
2022-09-24T06:17:57.710Z,3.23
2022-09-24T06:20:26.825Z,3.47
2022-09-24T06:23:00.088Z,3.17
2022-09-24T06:25:27.031Z,4.43
2022-09-24T06:28:02.075Z,5.00
2022-09-24T06:30:39.213Z,4.70
2022-09-24T06:33:10.612Z,3.23
2022-09-24T06:35:38.367Z,3.23
2022-09-24T06:38:06.222Z,3.37
2022-09-24T06:40:36.864Z,3.17
2022-09-24T06:43:04.422Z,2.90
2022-09-24T06:45:31.060Z,2.73
2022-09-24T06:48:03.074Z,2.70
2022-09-24T06:50:31.992Z,3.30
2022-09-24T06:53:03.829Z,3.77
2022-09-24T06:55:37.054Z,3.70
2022-09-24T06:58:27.503Z,3.17
2022-09-24T07:00:59.058Z,3.03
2022-09-24T07:03:27.410Z,3.10
2022-09-24T07:05:57.451Z,2.90
2022-09-24T07:08:24.040Z,2.80
2022-09-24T07:10:53.083Z,2.70
2022-09-24T07:13:23.518Z,2.60
2022-09-24T07:15:52.336Z,2.47
2022-09-24T07:18:20.409Z,3.03
2022-09-24T07:20:54.783Z,3.10
2022-09-24T07:23:21.845Z,3.17
2022-09-24T07:25:51.671Z,2.97
2022-09-24T07:28:19.673Z,3.20
2022-09-24T07:30:46.324Z,3.00
2022-09-24T07:33:18.204Z,2.87
2022-09-24T07:35:47.625Z,2.80
2022-09-24T07:38:16.950Z,3.10
2022-09-24T07:40:45.124Z,2.67
2022-09-24T07:43:14.167Z,2.70
2022-09-24T07:45:42.080Z,2.90
2022-09-24T07:48:10.445Z,3.10
2022-09-24T07:50:44.682Z,3.00
2022-09-24T07:53:12.679Z,2.97
2022-09-24T07:55:41.092Z,2.57
2022-09-24T07:58:13.729Z,3.10
2022-09-24T08:00:40.896Z,3.40
2022-09-24T08:03:07.578Z,3.17
2022-09-24T08:05:34.738Z,3.17
2022-09-24T08:08:01.551Z,3.10
2022-09-24T08:10:28.420Z,2.50
2022-09-24T08:12:57.042Z,3.33
2022-09-24T08:15:24.084Z,2.40
2022-09-24T08:17:51.240Z,2.20
2022-09-24T08:20:18.250Z,2.17
2022-09-24T08:22:45.028Z,2.43
2022-09-24T08:25:11.900Z,1.47
2022-09-24T08:27:38.615Z,1.80
2022-09-24T08:30:06.411Z,1.97
2022-09-24T08:32:33.046Z,2.10
2022-09-24T08:34:59.651Z,1.50
2022-09-24T08:37:28.177Z,2.00
2022-09-24T08:39:54.921Z,1.90
2022-09-24T08:42:37.574Z,1.80
2022-09-24T08:45:25.083Z,1.90
2022-09-24T08:48:09.722Z,1.90
2022-09-24T08:50:39.679Z,2.20
2022-09-24T08:53:26.541Z,1.90
2022-09-24T08:55:55.786Z,2.00
2022-09-24T08:58:33.005Z,1.67
2022-09-24T09:01:21.498Z,2.10
2022-09-24T09:03:57.212Z,1.63
2022-09-24T09:06:23.787Z,1.73
2022-09-24T09:09:12.192Z,1.63
2022-09-24T09:11:40.868Z,1.50
2022-09-24T09:14:19.659Z,1.70
2022-09-24T09:16:49.268Z,1.60
2022-09-24T09:19:18.053Z,1.77
2022-09-24T09:21:53.714Z,1.33
2022-09-24T09:24:27.325Z,1.40
2022-09-24T09:26:56.098Z,1.90
2022-09-24T09:29:26.655Z,1.50
2022-09-24T09:32:35.211Z,1.40
2022-09-24T09:35:29.782Z,1.50
2022-09-24T09:38:29.507Z,1.50
2022-09-24T09:41:14.869Z,1.40
2022-09-24T09:43:41.880Z,2.47
2022-09-24T09:46:18.619Z,1.20
2022-09-24T09:48:49.360Z,1.37
2022-09-24T09:51:22.574Z,1.33
2022-09-24T09:54:00.708Z,1.30
2022-09-24T09:56:34.282Z,1.20
2022-09-24T09:59:12.964Z,1.53
2022-09-24T10:01:42.170Z,1.40
2022-09-24T10:04:35.180Z,1.30
2022-09-24T10:07:16.306Z,1.30
2022-09-24T10:09:50.462Z,1.70
2022-09-24T10:12:22.288Z,1.60
2022-09-24T10:15:04.331Z,1.63
2022-09-24T10:17:38.382Z,1.50
2022-09-24T10:20:18.387Z,1.30
2022-09-24T10:22:52.809Z,1.30
2022-09-24T10:25:26.342Z,1.10
2022-09-24T10:28:16.115Z,1.60
2022-09-24T10:31:01.178Z,1.50
2022-09-24T10:33:39.621Z,1.40
2022-09-24T10:36:21.233Z,1.23
2022-09-24T10:39:01.902Z,1.20
2022-09-24T10:41:31.402Z,1.30
2022-09-24T10:44:03.291Z,1.20
2022-09-24T10:46:53.637Z,1.20
2022-09-24T10:49:23.073Z,1.27
2022-09-24T10:51:55.219Z,1.27
2022-09-24T10:54:33.195Z,1.27
2022-09-24T10:57:09.005Z,1.40
2022-09-24T11:00:02.227Z,1.33
2022-09-24T11:03:11.689Z,1.30
2022-09-24T11:06:10.671Z,1.27
2022-09-24T11:09:12.762Z,1.27
2022-09-24T11:11:59.931Z,1.23
2022-09-24T11:15:12.038Z,1.30
2022-09-24T11:18:07.020Z,1.47
2022-09-24T11:20:49.520Z,1.43
2022-09-24T11:23:56.626Z,1.17
2022-09-24T11:26:32.326Z,1.40
2022-09-24T11:29:50.222Z,1.10
2022-09-24T11:32:25.817Z,1.90
2022-09-24T11:35:15.621Z,1.30
2022-09-24T11:37:51.161Z,1.00
2022-09-24T11:40:38.648Z,1.10
2022-09-24T11:43:26.532Z,1.40
2022-09-24T11:45:58.106Z,1.20
2022-09-24T11:48:45.885Z,1.10
2022-09-24T11:51:51.363Z,1.20
2022-09-24T11:54:30.161Z,1.07
2022-09-24T11:57:24.195Z,1.13
2022-09-24T12:00:09.863Z,1.10
2022-09-24T12:03:04.176Z,1.07
2022-09-24T12:05:35.906Z,1.00
2022-09-24T12:08:02.515Z,1.20
2022-09-24T12:10:32.398Z,0.90
2022-09-24T12:13:16.064Z,1.33
2022-09-24T12:15:54.607Z,1.00
2022-09-24T12:18:24.010Z,1.10
2022-09-24T12:20:59.404Z,1.13
2022-09-24T12:23:32.840Z,0.90
2022-09-24T12:26:05.847Z,1.33
2022-09-24T12:29:21.270Z,0.90
2022-09-24T12:32:21.007Z,1.40
2022-09-24T12:35:00.718Z,1.00
2022-09-24T12:37:34.226Z,1.17
2022-09-24T12:40:12.885Z,0.90
2022-09-24T12:42:45.471Z,1.10
2022-09-24T12:45:19.383Z,0.90
2022-09-24T12:48:00.301Z,1.10
2022-09-24T12:50:40.744Z,1.47
2022-09-24T12:53:27.881Z,1.63
2022-09-24T12:56:05.220Z,1.93
2022-09-24T12:58:44.024Z,1.10
2022-09-24T13:01:32.743Z,1.13
2022-09-24T13:04:25.958Z,1.00
2022-09-24T13:06:53.183Z,1.30
2022-09-24T13:09:26.323Z,1.30
2022-09-24T13:12:05.006Z,1.10
2022-09-24T13:14:36.275Z,1.27
2022-09-24T13:17:08.888Z,1.20
2022-09-24T13:19:41.127Z,1.00
2022-09-24T13:22:29.591Z,1.20
2022-09-24T13:25:08.232Z,1.10
2022-09-24T13:27:41.393Z,0.90
2022-09-24T13:30:19.651Z,1.20
2022-09-24T13:33:01.134Z,1.10
2022-09-24T13:35:35.703Z,1.57
2022-09-24T13:38:12.512Z,1.13
2022-09-24T13:40:45.667Z,1.10
2022-09-24T13:43:25.334Z,1.23
2022-09-24T13:45:52.798Z,1.40
2022-09-24T13:48:38.878Z,1.20
2022-09-24T13:51:11.933Z,1.23
2022-09-24T13:53:55.985Z,1.20
2022-09-24T13:56:23.491Z,1.80
2022-09-24T13:58:51.501Z,1.20
2022-09-24T14:01:30.014Z,1.00
2022-09-24T14:04:01.108Z,2.50
2022-09-24T14:06:37.484Z,8.70
2022-09-24T14:09:31.790Z,1.43
2022-09-24T14:12:03.483Z,1.00
2022-09-24T14:14:34.752Z,1.00
2022-09-24T14:17:09.515Z,1.47
2022-09-24T14:19:36.304Z,1.20
2022-09-24T14:22:06.843Z,1.50
2022-09-24T14:24:48.387Z,1.30
2022-09-24T14:27:19.585Z,1.10
2022-09-24T14:29:53.402Z,1.17
2022-09-24T14:32:27.740Z,1.80
2022-09-24T14:35:07.960Z,1.40
2022-09-24T14:37:38.131Z,1.33
2022-09-24T14:40:14.686Z,1.30
2022-09-24T14:43:03.369Z,1.03
2022-09-24T14:45:40.960Z,1.30
2022-09-24T14:48:30.685Z,1.00
2022-09-24T14:50:57.421Z,1.27
2022-09-24T14:53:27.026Z,1.20
2022-09-24T14:55:54.359Z,1.30
2022-09-24T14:58:30.028Z,1.20
2022-09-24T15:01:05.907Z,1.23
2022-09-24T15:03:50.341Z,1.30
2022-09-24T15:06:23.465Z,1.13
2022-09-24T15:09:07.439Z,1.00
2022-09-24T15:11:43.251Z,1.30
2022-09-24T15:14:20.139Z,1.20
2022-09-24T15:16:47.726Z,1.10
2022-09-24T15:19:20.350Z,1.00
2022-09-24T15:21:51.537Z,0.90
2022-09-24T15:24:20.326Z,1.20
2022-09-24T15:27:08.355Z,1.10
2022-09-24T15:29:35.023Z,1.27
2022-09-24T15:32:02.363Z,0.93
2022-09-24T15:34:29.094Z,1.20
2022-09-24T15:37:01.590Z,1.30
2022-09-24T15:39:28.741Z,1.30
2022-09-24T15:41:55.354Z,1.30
2022-09-24T15:44:27.188Z,1.67
2022-09-24T15:46:56.818Z,1.30
2022-09-24T15:49:23.815Z,1.10
2022-09-24T15:51:59.958Z,1.30
2022-09-24T15:54:26.573Z,0.97
2022-09-24T15:56:53.350Z,1.10
2022-09-24T15:59:21.647Z,1.17
2022-09-24T16:01:51.245Z,1.40
2022-09-24T16:04:18.000Z,1.30
2022-09-24T16:06:44.675Z,1.20
2022-09-24T16:09:11.286Z,1.20
2022-09-24T16:11:38.088Z,1.40
2022-09-24T16:14:05.762Z,1.57
2022-09-24T16:16:32.440Z,1.27
2022-09-24T16:18:59.394Z,1.20
2022-09-24T16:21:26.082Z,1.33
2022-09-24T16:23:56.819Z,1.87
2022-09-24T16:26:23.694Z,1.30
2022-09-24T16:28:51.701Z,1.80
2022-09-24T16:31:21.361Z,1.80
2022-09-24T16:33:48.190Z,1.60
2022-09-24T16:36:14.852Z,1.70
2022-09-24T16:38:41.539Z,1.77
2022-09-24T16:41:08.454Z,1.83
2022-09-24T16:43:35.085Z,1.93
2022-09-24T16:46:03.773Z,1.80
2022-09-24T16:48:31.484Z,1.90
2022-09-24T16:51:08.281Z,1.90
2022-09-24T16:53:35.302Z,2.10
2022-09-24T16:56:08.496Z,2.10
2022-09-24T16:58:35.563Z,2.53
2022-09-24T17:01:11.062Z,2.30
2022-09-24T17:03:40.973Z,2.80
2022-09-24T17:06:08.199Z,3.00
2022-09-24T17:08:55.126Z,2.80
2022-09-24T17:11:22.754Z,4.17
2022-09-24T17:13:49.395Z,3.30
2022-09-24T17:16:18.264Z,3.20
2022-09-24T17:18:46.230Z,3.13
2022-09-24T17:21:13.520Z,3.90
2022-09-24T17:23:40.196Z,5.30
2022-09-24T17:26:12.475Z,6.13
2022-09-24T17:28:43.874Z,7.93
2022-09-24T17:31:14.374Z,5.10
2022-09-24T17:33:45.285Z,5.30
2022-09-24T17:36:12.864Z,7.20
2022-09-24T17:38:39.750Z,4.10
2022-09-24T17:41:11.843Z,3.97
2022-09-24T17:43:39.597Z,5.07
2022-09-24T17:46:13.764Z,6.80
2022-09-24T17:48:47.642Z,7.57
2022-09-24T17:51:17.009Z,8.40
2022-09-24T17:53:43.614Z,8.17
2022-09-24T17:56:12.626Z,7.20
2022-09-24T17:58:41.875Z,5.60
2022-09-24T18:01:13.731Z,5.60
2022-09-24T18:03:41.144Z,6.40
2022-09-24T18:06:10.729Z,4.67
2022-09-24T18:08:39.305Z,4.50
2022-09-24T18:11:09.612Z,4.50
2022-09-24T18:13:36.549Z,4.40
2022-09-24T18:16:15.434Z,4.73
2022-09-24T18:18:43.681Z,4.90
2022-09-24T18:21:12.519Z,4.17
2022-09-24T18:23:40.198Z,3.90
2022-09-24T18:26:11.895Z,3.90
2022-09-24T18:28:53.563Z,3.30
2022-09-24T18:31:22.894Z,3.10
2022-09-24T18:33:51.183Z,2.87
2022-09-24T18:36:21.813Z,3.10
2022-09-24T18:38:48.734Z,2.93
2022-09-24T18:41:24.150Z,2.77
2022-09-24T18:43:52.304Z,2.83
2022-09-24T18:46:21.302Z,2.97
2022-09-24T18:48:50.207Z,3.00
2022-09-24T18:51:19.728Z,2.90
2022-09-24T18:53:52.210Z,3.30
2022-09-24T18:56:18.901Z,3.00
2022-09-24T18:58:47.101Z,2.80
2022-09-24T19:01:15.647Z,2.63
2022-09-24T19:03:43.477Z,2.57
2022-09-24T19:06:12.962Z,2.37
2022-09-24T19:08:40.171Z,2.90
2022-09-24T19:11:13.884Z,2.77
2022-09-24T19:13:42.636Z,3.30
2022-09-24T19:16:14.382Z,2.80
2022-09-24T19:18:41.893Z,2.53
2022-09-24T19:21:10.915Z,2.90
2022-09-24T19:23:38.490Z,2.60
2022-09-24T19:26:06.807Z,2.93
2022-09-24T19:28:35.043Z,3.17
2022-09-24T19:31:02.333Z,2.70
2022-09-24T19:33:29.527Z,2.80
2022-09-24T19:35:59.395Z,2.80
2022-09-24T19:38:28.504Z,2.90
2022-09-24T19:41:04.842Z,2.53
2022-09-24T19:43:34.727Z,2.90
2022-09-24T19:46:06.894Z,3.00
2022-09-24T19:48:38.222Z,2.80
2022-09-24T19:51:08.753Z,3.07
2022-09-24T19:53:36.207Z,2.90
2022-09-24T19:56:06.496Z,3.20
2022-09-24T19:58:33.458Z,3.67
2022-09-24T20:01:14.943Z,3.30
2022-09-24T20:03:43.805Z,3.50
2022-09-24T20:06:13.524Z,3.70
2022-09-24T20:08:40.499Z,4.10
2022-09-24T20:11:10.905Z,3.93
2022-09-24T20:13:46.126Z,3.90
2022-09-24T20:16:24.421Z,3.47
2022-09-24T20:18:55.674Z,3.80
2022-09-24T20:21:23.030Z,4.00
2022-09-24T20:23:49.936Z,3.67
2022-09-24T20:26:35.624Z,3.87
2022-09-24T20:29:02.983Z,3.83
2022-09-24T20:31:30.208Z,4.00
2022-09-24T20:33:57.108Z,3.77
2022-09-24T20:36:25.007Z,4.07
2022-09-24T20:38:52.872Z,4.47
2022-09-24T20:41:22.029Z,4.90
2022-09-24T20:43:49.757Z,4.40
2022-09-24T20:46:21.943Z,4.00
2022-09-24T20:48:48.743Z,3.93
2022-09-24T20:51:18.207Z,4.50
2022-09-24T20:53:46.369Z,4.23
2022-09-24T20:56:13.739Z,3.53
2022-09-24T20:58:41.126Z,4.20
2022-09-24T21:01:10.355Z,4.90
2022-09-24T21:03:44.359Z,5.70
2022-09-24T21:06:12.779Z,5.90
2022-09-24T21:08:41.647Z,5.63
2022-09-24T21:11:11.352Z,4.90
2022-09-24T21:13:44.742Z,4.10
2022-09-24T21:16:12.399Z,3.50
2022-09-24T21:18:44.423Z,3.47
2022-09-24T21:21:19.220Z,2.97
2022-09-24T21:23:49.916Z,3.73
2022-09-24T21:26:30.974Z,3.20
2022-09-24T21:29:03.696Z,2.93
2022-09-24T21:31:32.954Z,3.00
2022-09-24T21:33:59.943Z,3.30
2022-09-24T21:36:32.092Z,2.83
2022-09-24T21:39:00.637Z,3.50
2022-09-24T21:41:29.564Z,3.43
2022-09-24T21:43:56.287Z,3.90
2022-09-24T21:46:24.533Z,3.90
2022-09-24T21:48:52.179Z,4.10
2022-09-24T21:51:21.783Z,4.77
2022-09-24T21:53:57.779Z,5.30
2022-09-24T21:56:25.065Z,4.90
2022-09-24T21:58:52.943Z,5.70
2022-09-24T22:01:31.001Z,5.43
2022-09-24T22:03:59.818Z,4.93
2022-09-24T22:06:29.104Z,4.93
2022-09-24T22:09:04.607Z,4.60
2022-09-24T22:11:31.868Z,4.60
2022-09-24T22:14:02.421Z,4.93
2022-09-24T22:16:31.097Z,4.93
2022-09-24T22:18:58.261Z,4.97
2022-09-24T22:21:25.468Z,4.73
2022-09-24T22:23:52.097Z,4.63
2022-09-24T22:26:18.999Z,4.53
2022-09-24T22:28:45.987Z,4.17
2022-09-24T22:31:15.338Z,5.60
2022-09-24T22:34:01.252Z,5.90
2022-09-24T22:36:30.527Z,5.90
2022-09-24T22:38:59.469Z,6.10
2022-09-24T22:41:28.967Z,6.00
2022-09-24T22:43:57.055Z,6.13
2022-09-24T22:46:27.899Z,5.70
2022-09-24T22:48:56.349Z,5.77
2022-09-24T22:51:25.206Z,5.37
2022-09-24T22:53:52.022Z,6.03
2022-09-24T22:56:21.807Z,5.30
2022-09-24T22:58:56.700Z,5.77
2022-09-24T23:01:35.116Z,5.40
2022-09-24T23:04:02.481Z,5.40
2022-09-24T23:06:30.438Z,5.40
2022-09-24T23:08:57.782Z,5.10
2022-09-24T23:11:27.431Z,4.60
2022-09-24T23:13:59.574Z,4.47
2022-09-24T23:16:28.708Z,4.50
2022-09-24T23:18:58.122Z,4.57
2022-09-24T23:21:27.026Z,4.13
2022-09-24T23:23:54.838Z,3.83
2022-09-24T23:26:23.039Z,3.97
2022-09-24T23:28:53.311Z,4.43
2022-09-24T23:31:25.203Z,3.87
2022-09-24T23:33:53.287Z,4.10
2022-09-24T23:36:19.947Z,4.60
2022-09-24T23:38:46.572Z,3.70
2022-09-24T23:41:14.219Z,3.40
2022-09-24T23:43:41.892Z,3.70
2022-09-24T23:46:09.841Z,3.27
2022-09-24T23:48:36.886Z,3.70
2022-09-24T23:51:04.443Z,3.37
2022-09-24T23:53:31.527Z,3.90
2022-09-24T23:55:58.119Z,4.13
2022-09-24T23:58:25.130Z,3.80
